KOWD/OWD METAR and TAF weather

Enter ICAO airport designator
Station Type Date Time Source
KOWD METAR 2020/01/22 11:53 UTC NOAA

KOWD 221153Z 00000KT 10SM CLR M13/M17 A3044 RMK AO2 SLP307 I6000 T11281172 11106 21133 53011


Station Type Date Time Source
KOWD Decoded METAR 2020/01/22 11:53 UTC NOAA

NORWOOD MEMORIAL AIRPORT, MA, United States (KOWD) 42-11N 71-10W 19M
Jan 22, 2020 - 06:53 AM EST / 2020.01.22 1153 UTC
Wind: Calm:0
Visibility: 10 mile(s):0
Sky conditions: clear
Temperature: 9.0 F (-12.8 C)
Dew Point: 1.0 F (-17.2 C)
Relative Humidity: 69%
Pressure (altimeter): 30.44 in. Hg (1030 hPa)
Pressure tendency: 0.03 inches (1.1 hPa) higher than three hours ago
ob: KOWD 221153Z 00000KT 10SM CLR M13/M17 A3044 RMK AO2 SLP307 I6000 T11281172 11106 21133 53011
cycle: 12

Station Type Date Time Source
KOWD TAF UTC NOAA

Error!

Example: see airport list